createdAt,value
2023-04-16T00:00:35.330Z,2.10
2023-04-16T00:03:02.874Z,2.15
2023-04-16T00:05:30.230Z,2.20
2023-04-16T00:07:57.492Z,2.20
2023-04-16T00:10:24.736Z,2.33
2023-04-16T00:12:51.956Z,2.83
2023-04-16T00:15:19.177Z,2.85
2023-04-16T00:17:47.253Z,2.30
2023-04-16T00:20:14.632Z,2.72
2023-04-16T00:22:41.976Z,2.97
2023-04-16T00:25:09.381Z,3.05
2023-04-16T00:27:36.694Z,3.47
2023-04-16T00:30:04.278Z,3.30
2023-04-16T00:32:31.577Z,3.00
2023-04-16T00:34:58.840Z,3.50
2023-04-16T00:37:26.285Z,3.67
2023-04-16T00:39:54.056Z,3.72
2023-04-16T00:42:21.388Z,3.50
2023-04-16T00:44:48.708Z,3.80
2023-04-16T00:47:16.735Z,4.25
2023-04-16T00:49:44.399Z,3.47
2023-04-16T00:52:12.061Z,3.75
2023-04-16T00:54:39.961Z,3.40
2023-04-16T00:57:07.669Z,3.85
2023-04-16T00:59:35.847Z,3.30
2023-04-16T01:02:03.275Z,3.33
2023-04-16T01:04:31.644Z,3.83
2023-04-16T01:06:59.030Z,3.78
2023-04-16T01:09:26.522Z,3.25
2023-04-16T01:11:53.806Z,3.42
2023-04-16T01:14:21.050Z,3.72
2023-04-16T01:16:48.407Z,3.28
2023-04-16T01:19:16.494Z,3.53
2023-04-16T01:21:43.857Z,3.17
2023-04-16T01:24:11.101Z,3.75
2023-04-16T01:26:40.237Z,3.55
2023-04-16T01:29:07.619Z,3.55
2023-04-16T01:31:35.048Z,3.53
2023-04-16T01:34:06.400Z,3.63
2023-04-16T01:36:35.374Z,3.30
2023-04-16T01:39:02.855Z,3.53
2023-04-16T01:41:31.835Z,3.33
2023-04-16T01:43:59.017Z,4.05
2023-04-16T01:46:30.951Z,3.45
2023-04-16T01:48:58.778Z,3.40
2023-04-16T01:51:27.369Z,2.65
2023-04-16T01:53:55.179Z,3.08
2023-04-16T01:56:22.527Z,2.78
2023-04-16T01:58:49.914Z,2.40
2023-04-16T02:01:19.096Z,2.70
2023-04-16T02:03:47.883Z,2.10
2023-04-16T02:06:16.419Z,1.90
2023-04-16T02:08:43.863Z,1.60
2023-04-16T02:11:11.261Z,1.55
2023-04-16T02:13:38.800Z,1.33
2023-04-16T02:16:06.492Z,1.30
2023-04-16T02:18:54.425Z,1.40
2023-04-16T02:21:23.982Z,1.27
2023-04-16T02:23:51.848Z,1.48
2023-04-16T02:26:23.960Z,1.52
2023-04-16T02:28:52.082Z,1.45
2023-04-16T02:31:24.573Z,1.60
2023-04-16T02:33:51.922Z,1.67
2023-04-16T02:36:19.187Z,1.70
2023-04-16T02:38:46.848Z,2.15
2023-04-16T02:41:15.049Z,1.92
2023-04-16T02:43:42.238Z,1.70
2023-04-16T02:46:09.747Z,2.10
2023-04-16T02:48:36.969Z,1.90
2023-04-16T02:51:04.325Z,2.05
2023-04-16T02:53:31.596Z,2.45
2023-04-16T02:55:58.835Z,2.67
2023-04-16T02:58:26.935Z,2.28
2023-04-16T03:00:54.896Z,2.55
2023-04-16T03:03:22.374Z,2.50
2023-04-16T03:05:49.696Z,2.40
2023-04-16T03:08:17.036Z,2.10
2023-04-16T03:10:44.304Z,2.25
2023-04-16T03:13:11.610Z,2.10
2023-04-16T03:15:38.847Z,2.13
2023-04-16T03:18:06.124Z,2.20
2023-04-16T03:20:33.814Z,2.20
2023-04-16T03:23:01.211Z,2.00
2023-04-16T03:25:28.621Z,2.58
2023-04-16T03:27:56.890Z,2.30
2023-04-16T03:30:24.508Z,2.30
2023-04-16T03:32:52.019Z,2.00
2023-04-16T03:35:19.457Z,2.03
2023-04-16T03:37:46.656Z,2.25
2023-04-16T03:40:14.533Z,2.25
2023-04-16T03:42:42.099Z,1.90
2023-04-16T03:45:09.812Z,2.10
2023-04-16T03:47:38.548Z,1.85
2023-04-16T03:50:06.249Z,1.92
2023-04-16T03:52:33.575Z,2.05
2023-04-16T03:55:00.836Z,2.28
2023-04-16T03:57:31.127Z,2.05
2023-04-16T04:00:04.873Z,1.90
2023-04-16T04:02:41.688Z,1.80
2023-04-16T04:05:16.048Z,2.17
2023-04-16T04:07:45.550Z,2.20
2023-04-16T04:10:14.694Z,1.85
2023-04-16T04:12:43.331Z,2.30
2023-04-16T04:15:11.569Z,2.20
2023-04-16T04:17:38.919Z,2.00
2023-04-16T04:20:06.877Z,2.08
2023-04-16T04:22:34.172Z,2.13
2023-04-16T04:25:01.642Z,2.25
2023-04-16T04:27:31.199Z,2.45
2023-04-16T04:29:58.408Z,2.22
2023-04-16T04:32:25.642Z,2.80
2023-04-16T04:34:52.946Z,2.05
2023-04-16T04:37:20.977Z,2.05
2023-04-16T04:39:48.418Z,2.15
2023-04-16T04:42:18.597Z,2.10
2023-04-16T04:44:46.678Z,2.30
2023-04-16T04:47:15.063Z,2.25
2023-04-16T04:49:42.344Z,1.83
2023-04-16T04:52:09.716Z,2.58
2023-04-16T04:54:37.056Z,1.90
2023-04-16T04:57:05.678Z,1.95
2023-04-16T04:59:33.127Z,1.60
2023-04-16T05:02:00.561Z,1.60
2023-04-16T05:04:27.774Z,1.60
2023-04-16T05:06:55.072Z,1.70
2023-04-16T05:09:22.254Z,1.75
2023-04-16T05:11:49.585Z,2.20
2023-04-16T05:14:16.816Z,2.50
2023-04-16T05:16:44.200Z,2.70
2023-04-16T05:19:11.752Z,2.78
2023-04-16T05:21:39.171Z,3.10
2023-04-16T05:24:06.666Z,3.30
2023-04-16T05:26:33.868Z,3.05
2023-04-16T05:29:01.135Z,3.30
2023-04-16T05:31:28.501Z,3.20
2023-04-16T05:33:55.839Z,3.00
2023-04-16T05:36:23.113Z,3.20
2023-04-16T05:38:50.470Z,3.20
2023-04-16T05:41:17.713Z,3.47
2023-04-16T05:43:44.932Z,3.47
2023-04-16T05:46:12.335Z,3.15
2023-04-16T05:48:39.575Z,3.35
2023-04-16T05:51:06.826Z,3.00
2023-04-16T05:53:34.012Z,3.05
2023-04-16T05:56:01.371Z,3.20
2023-04-16T05:58:28.594Z,3.08
2023-04-16T06:00:55.893Z,3.20
2023-04-16T06:03:23.317Z,3.05
2023-04-16T06:05:50.876Z,2.85
2023-04-16T06:08:18.195Z,2.95
2023-04-16T06:10:48.622Z,3.38
2023-04-16T06:13:16.170Z,3.45
2023-04-16T06:15:43.817Z,3.20
2023-04-16T06:18:11.135Z,2.72
2023-04-16T06:20:38.446Z,3.25
2023-04-16T06:23:05.617Z,3.08
2023-04-16T06:25:32.906Z,3.45
2023-04-16T06:28:00.224Z,3.50
2023-04-16T06:30:27.517Z,3.20
2023-04-16T06:32:57.624Z,3.22
2023-04-16T06:35:24.883Z,3.33
2023-04-16T06:37:52.255Z,3.00
2023-04-16T06:40:19.515Z,3.17
2023-04-16T06:42:46.931Z,3.08
2023-04-16T06:48:00.159Z,3.47
2023-04-16T06:50:28.497Z,3.58
2023-04-16T06:52:56.203Z,3.17
2023-04-16T06:55:23.448Z,3.78
2023-04-16T06:57:50.740Z,3.25
2023-04-16T07:00:18.300Z,3.60
2023-04-16T07:02:45.796Z,2.35
2023-04-16T07:05:13.059Z,3.53
2023-04-16T07:07:40.286Z,2.80
2023-04-16T07:10:08.207Z,3.20
2023-04-16T07:12:35.676Z,2.42
2023-04-16T07:15:03.102Z,2.55
2023-04-16T07:17:30.397Z,3.00
2023-04-16T07:19:57.616Z,3.47
2023-04-16T07:22:24.838Z,3.00
2023-04-16T07:24:52.140Z,3.10
2023-04-16T07:27:19.345Z,2.85
2023-04-16T07:29:46.758Z,3.25
2023-04-16T07:32:15.486Z,2.30
2023-04-16T07:34:43.051Z,2.70
2023-04-16T07:37:10.367Z,2.90
2023-04-16T07:39:37.550Z,3.03
2023-04-16T07:42:04.912Z,2.72
2023-04-16T07:44:32.190Z,3.00
2023-04-16T07:46:59.603Z,2.40
2023-04-16T07:49:26.836Z,2.80
2023-04-16T07:51:54.112Z,2.90
2023-04-16T07:54:21.374Z,3.28
2023-04-16T07:56:48.606Z,2.40
2023-04-16T07:59:22.982Z,3.30
2023-04-16T08:01:53.223Z,2.58
2023-04-16T08:04:25.057Z,2.97
2023-04-16T08:06:53.694Z,2.90
2023-04-16T08:09:22.250Z,2.97
2023-04-16T08:11:49.954Z,3.17
2023-04-16T08:14:17.887Z,3.20
2023-04-16T08:16:45.238Z,3.50
2023-04-16T08:19:12.830Z,3.65
2023-04-16T08:21:40.392Z,2.95
2023-04-16T08:24:07.871Z,3.92
2023-04-16T08:26:35.070Z,3.80
2023-04-16T08:29:02.392Z,3.75
2023-04-16T08:31:29.780Z,3.42
2023-04-16T08:33:57.049Z,2.88
2023-04-16T08:36:24.260Z,3.70
2023-04-16T08:38:52.218Z,2.95
2023-04-16T08:41:22.200Z,2.60
2023-04-16T08:43:51.671Z,2.50
2023-04-16T08:46:22.600Z,2.70
2023-04-16T08:48:52.655Z,1.85
2023-04-16T08:51:24.027Z,2.20
2023-04-16T08:54:04.462Z,2.25
2023-04-16T08:56:36.007Z,2.28
2023-04-16T08:59:05.531Z,2.30
2023-04-16T09:01:33.500Z,2.55
2023-04-16T09:04:04.127Z,2.10
2023-04-16T09:06:33.637Z,2.33
2023-04-16T09:09:04.543Z,2.22
2023-04-16T09:11:32.278Z,2.15
2023-04-16T09:14:00.911Z,2.20
2023-04-16T09:16:33.525Z,2.05
2023-04-16T09:19:00.942Z,2.38
2023-04-16T09:21:28.243Z,1.80
2023-04-16T09:23:56.018Z,1.60
2023-04-16T09:26:23.653Z,1.80
2023-04-16T09:28:51.336Z,1.63
2023-04-16T09:31:19.356Z,1.88
2023-04-16T09:34:03.714Z,1.77
2023-04-16T09:36:32.503Z,1.90
2023-04-16T09:39:00.300Z,1.77
2023-04-16T09:41:29.749Z,2.20
2023-04-16T09:44:01.859Z,2.10
2023-04-16T09:46:35.127Z,1.52
2023-04-16T09:49:09.244Z,1.10
2023-04-16T09:51:44.144Z,1.80
2023-04-16T09:54:11.361Z,1.30
2023-04-16T09:56:43.292Z,1.63
2023-04-16T09:59:23.827Z,1.50
2023-04-16T10:01:53.701Z,1.45
2023-04-16T10:04:51.586Z,1.30
2023-04-16T10:07:19.598Z,1.60
2023-04-16T10:09:48.581Z,1.95
2023-04-16T10:12:16.507Z,2.38
2023-04-16T10:14:43.736Z,2.03
2023-04-16T10:17:11.170Z,2.30
2023-04-16T10:19:39.179Z,2.40
2023-04-16T10:22:06.655Z,1.88
2023-04-16T10:24:34.937Z,2.10
2023-04-16T10:27:02.547Z,1.80
2023-04-16T10:29:31.546Z,2.65
2023-04-16T10:31:59.609Z,1.90
2023-04-16T10:34:28.856Z,2.00
2023-04-16T10:36:56.214Z,1.75
2023-04-16T10:39:25.274Z,2.00
2023-04-16T10:42:09.941Z,1.60
2023-04-16T10:44:37.398Z,1.70
2023-04-16T10:47:12.608Z,2.13
2023-04-16T10:49:41.319Z,1.80
2023-04-16T10:52:13.637Z,1.73
2023-04-16T10:54:41.353Z,2.08
2023-04-16T10:57:10.594Z,1.90
2023-04-16T10:59:39.592Z,2.00
2023-04-16T11:02:12.912Z,1.70
2023-04-16T11:04:43.790Z,1.90
2023-04-16T11:07:32.733Z,1.42
2023-04-16T11:10:07.200Z,1.70
2023-04-16T11:12:39.736Z,1.38
2023-04-16T11:15:08.192Z,1.40
2023-04-16T11:17:48.779Z,1.58
2023-04-16T11:20:26.886Z,1.83
2023-04-16T11:22:55.974Z,1.60
2023-04-16T11:25:29.759Z,1.70
2023-04-16T11:27:59.100Z,1.60
2023-04-16T11:30:34.732Z,2.00
2023-04-16T11:33:07.665Z,1.58
2023-04-16T11:35:34.984Z,1.95
2023-04-16T11:38:02.276Z,1.73
2023-04-16T11:40:30.844Z,1.50
2023-04-16T11:43:03.144Z,1.70
2023-04-16T11:45:30.777Z,1.92
2023-04-16T11:47:58.229Z,2.10
2023-04-16T11:50:27.822Z,1.75
2023-04-16T11:52:57.744Z,2.20
2023-04-16T11:55:25.411Z,2.00
2023-04-16T11:57:52.898Z,2.20
2023-04-16T12:00:23.067Z,2.55
2023-04-16T12:02:55.642Z,2.60
2023-04-16T12:05:34.000Z,2.40
2023-04-16T12:08:03.548Z,2.10
2023-04-16T12:10:34.782Z,2.10
2023-04-16T12:13:18.405Z,2.10
2023-04-16T12:15:53.222Z,2.50
2023-04-16T12:18:22.980Z,2.58
2023-04-16T12:20:53.468Z,2.60
2023-04-16T12:23:23.807Z,2.33
2023-04-16T12:25:52.052Z,2.42
2023-04-16T12:28:33.139Z,2.67
2023-04-16T12:31:01.141Z,2.60
2023-04-16T12:33:28.722Z,2.58
2023-04-16T12:35:56.198Z,2.67
2023-04-16T12:38:24.745Z,2.80
2023-04-16T12:40:52.476Z,2.20
2023-04-16T12:43:21.606Z,2.33
2023-04-16T12:45:49.752Z,2.40
2023-04-16T12:48:17.224Z,2.30
2023-04-16T12:50:44.735Z,2.92
2023-04-16T12:53:12.143Z,3.13
2023-04-16T12:55:39.657Z,2.78
2023-04-16T12:58:09.781Z,2.88
2023-04-16T13:00:40.319Z,2.83
2023-04-16T13:03:07.821Z,2.40
2023-04-16T13:05:35.350Z,2.75
2023-04-16T13:08:02.694Z,2.60
2023-04-16T13:10:30.255Z,2.80
2023-04-16T13:12:57.462Z,2.30
2023-04-16T13:15:24.737Z,2.72
2023-04-16T13:17:52.090Z,2.80
2023-04-16T13:20:19.308Z,2.85
2023-04-16T13:22:46.546Z,2.30
2023-04-16T13:25:13.779Z,2.60
2023-04-16T13:27:41.470Z,2.50
2023-04-16T13:30:09.052Z,2.90
2023-04-16T13:32:36.475Z,2.17
2023-04-16T13:35:04.481Z,2.47
2023-04-16T13:37:31.696Z,2.42
2023-04-16T13:39:58.905Z,2.90
2023-04-16T13:42:26.188Z,2.50
2023-04-16T13:44:54.877Z,3.20
2023-04-16T13:47:22.176Z,3.05
2023-04-16T13:49:49.482Z,3.35
2023-04-16T13:52:16.803Z,2.97
2023-04-16T13:54:44.017Z,2.60
2023-04-16T13:57:20.007Z,2.60
2023-04-16T13:59:47.413Z,2.40
2023-04-16T14:02:14.979Z,2.90
2023-04-16T14:04:42.232Z,2.83
2023-04-16T14:07:09.736Z,2.70
2023-04-16T14:09:36.903Z,2.30
2023-04-16T14:12:04.239Z,2.40
2023-04-16T14:14:31.783Z,2.58
2023-04-16T14:16:59.736Z,2.97
2023-04-16T14:19:26.926Z,2.40
2023-04-16T14:21:54.397Z,2.72
2023-04-16T14:24:22.749Z,2.67
2023-04-16T14:26:49.962Z,2.40
2023-04-16T14:29:17.235Z,2.88
2023-04-16T14:31:44.410Z,3.15
2023-04-16T14:34:11.689Z,3.28
2023-04-16T14:36:39.057Z,3.50
2023-04-16T14:39:06.326Z,3.67
2023-04-16T14:41:33.539Z,3.60
2023-04-16T14:44:01.109Z,3.92
2023-04-16T14:46:28.392Z,3.70
2023-04-16T14:48:55.674Z,3.08
2023-04-16T14:51:22.850Z,3.35
2023-04-16T14:53:50.171Z,3.67
2023-04-16T14:56:17.391Z,3.60
2023-04-16T14:58:44.633Z,3.33
2023-04-16T15:01:13.664Z,3.78
2023-04-16T15:03:41.791Z,3.75
2023-04-16T15:06:09.444Z,3.28
2023-04-16T15:08:36.658Z,3.63
2023-04-16T15:11:04.014Z,3.90
2023-04-16T15:13:33.927Z,3.15
2023-04-16T15:16:01.561Z,3.50
2023-04-16T15:18:29.276Z,3.60
2023-04-16T15:20:56.589Z,3.60
2023-04-16T15:23:23.985Z,4.00
2023-04-16T15:25:51.231Z,3.67
2023-04-16T15:28:18.454Z,3.88
2023-04-16T15:30:45.790Z,3.83
2023-04-16T15:33:13.686Z,3.58
2023-04-16T15:35:41.292Z,3.42
2023-04-16T15:38:08.670Z,3.88
2023-04-16T15:40:36.819Z,3.83
2023-04-16T15:43:04.073Z,3.72
2023-04-16T15:45:31.881Z,3.85
2023-04-16T15:47:59.412Z,3.80
2023-04-16T15:50:27.074Z,3.45
2023-04-16T15:52:54.372Z,3.60
2023-04-16T15:55:21.673Z,3.30
2023-04-16T15:57:48.890Z,3.50
2023-04-16T16:00:17.129Z,2.90
2023-04-16T16:02:46.809Z,2.72
2023-04-16T16:05:14.927Z,3.08
2023-04-16T16:07:43.316Z,2.88
2023-04-16T16:10:11.673Z,2.20
2023-04-16T16:12:40.470Z,2.72
2023-04-16T16:15:08.378Z,2.53
2023-04-16T16:17:35.857Z,2.90
2023-04-16T16:20:04.058Z,2.78
2023-04-16T16:22:31.272Z,2.85
2023-04-16T16:24:58.518Z,2.83
2023-04-16T16:27:25.802Z,3.22
2023-04-16T16:29:53.009Z,2.85
2023-04-16T16:32:20.370Z,3.40
2023-04-16T16:34:47.582Z,3.10
2023-04-16T16:37:14.988Z,2.95
2023-04-16T16:39:42.303Z,3.25
2023-04-16T16:42:09.625Z,2.65
2023-04-16T16:44:37.187Z,3.22
2023-04-16T16:47:04.505Z,2.67
2023-04-16T16:49:32.002Z,2.30
2023-04-16T16:51:59.264Z,1.63
2023-04-16T16:54:26.568Z,1.90
2023-04-16T16:56:53.838Z,1.60
2023-04-16T16:59:21.035Z,1.90
2023-04-16T17:01:48.255Z,1.73
2023-04-16T17:04:17.174Z,2.00
2023-04-16T17:06:46.820Z,1.92
2023-04-16T17:09:14.234Z,2.10
2023-04-16T17:11:41.589Z,3.42
2023-04-16T17:14:09.065Z,1.50
2023-04-16T17:16:36.495Z,1.90
2023-04-16T17:19:03.847Z,1.63
2023-04-16T17:21:33.012Z,1.40
2023-04-16T17:24:00.439Z,1.10
2023-04-16T17:26:27.654Z,1.50
2023-04-16T17:28:56.673Z,1.10
2023-04-16T17:31:26.983Z,1.27
2023-04-16T17:33:54.716Z,1.27
2023-04-16T17:36:23.040Z,1.40
2023-04-16T17:38:50.864Z,1.23
2023-04-16T17:41:18.142Z,1.35
2023-04-16T17:43:49.650Z,1.30
2023-04-16T17:46:17.095Z,1.85
2023-04-16T17:48:44.439Z,1.70
2023-04-16T17:51:12.704Z,1.98
2023-04-16T17:53:39.954Z,1.70
2023-04-16T17:56:07.149Z,1.90
2023-04-16T17:58:35.376Z,2.00
2023-04-16T18:01:03.889Z,2.10
2023-04-16T18:03:32.512Z,2.15
2023-04-16T18:06:00.141Z,2.08
2023-04-16T18:08:28.656Z,1.70
2023-04-16T18:10:56.761Z,1.80
2023-04-16T18:13:24.503Z,1.60
2023-04-16T18:15:52.841Z,1.70
2023-04-16T18:18:21.306Z,2.30
2023-04-16T18:20:48.525Z,1.70
2023-04-16T18:23:15.949Z,2.17
2023-04-16T18:25:43.299Z,1.30
2023-04-16T18:28:13.660Z,1.50
2023-04-16T18:30:41.524Z,2.03
2023-04-16T18:33:38.423Z,1.83
2023-04-16T18:35:56.136Z,1.60
2023-04-16T18:38:23.486Z,3.28
2023-04-16T18:40:50.928Z,1.40
2023-04-16T18:43:18.145Z,1.48
2023-04-16T18:45:45.682Z,1.50
2023-04-16T18:48:12.900Z,1.50
2023-04-16T18:50:40.118Z,2.00
2023-04-16T18:53:07.379Z,1.52
2023-04-16T18:55:34.645Z,1.70
2023-04-16T18:58:01.948Z,1.88
2023-04-16T19:00:29.255Z,1.73
2023-04-16T19:02:56.576Z,2.00
2023-04-16T19:05:24.102Z,1.98
2023-04-16T19:07:51.427Z,2.03
2023-04-16T19:10:18.857Z,1.88
2023-04-16T19:12:46.060Z,2.05
2023-04-16T19:15:14.592Z,2.45
2023-04-16T19:17:41.871Z,2.78
2023-04-16T19:20:11.265Z,2.67
2023-04-16T19:22:38.632Z,2.45
2023-04-16T19:25:07.215Z,2.60
2023-04-16T19:27:34.808Z,2.60
2023-04-16T19:30:03.059Z,2.80
2023-04-16T19:32:31.016Z,2.38
2023-04-16T19:34:58.330Z,2.38
2023-04-16T19:37:25.678Z,2.30
2023-04-16T19:39:54.683Z,2.30
2023-04-16T19:42:22.078Z,1.77
2023-04-16T19:44:49.276Z,1.77
2023-04-16T19:47:16.537Z,2.00
2023-04-16T19:49:43.789Z,1.75
2023-04-16T19:52:11.146Z,2.00
2023-04-16T19:54:38.462Z,1.90
2023-04-16T19:57:05.987Z,1.95
2023-04-16T19:59:34.014Z,2.10
2023-04-16T20:02:01.582Z,1.90
2023-04-16T20:04:28.900Z,2.13
2023-04-16T20:06:56.286Z,2.20
2023-04-16T20:09:23.746Z,1.67
2023-04-16T20:11:51.503Z,1.77
2023-04-16T20:14:18.700Z,2.08
2023-04-16T20:16:46.004Z,2.00
2023-04-16T20:19:17.089Z,2.20
2023-04-16T20:21:45.536Z,1.90
2023-04-16T20:24:12.970Z,1.60
2023-04-16T20:26:40.496Z,1.48
2023-04-16T20:29:08.370Z,1.58
2023-04-16T20:31:35.899Z,1.80
2023-04-16T20:34:03.984Z,1.55
2023-04-16T20:36:31.824Z,1.75
2023-04-16T20:38:59.888Z,1.95
2023-04-16T20:41:27.357Z,1.95
2023-04-16T20:43:54.552Z,2.33
2023-04-16T20:46:30.112Z,1.80
2023-04-16T20:48:57.486Z,1.90
2023-04-16T20:51:24.696Z,1.63
2023-04-16T20:53:52.154Z,1.70
2023-04-16T20:56:19.459Z,2.33
2023-04-16T20:58:46.648Z,2.28
2023-04-16T21:01:14.047Z,1.90
2023-04-16T21:03:41.724Z,2.03
2023-04-16T21:06:09.068Z,2.13
2023-04-16T21:08:36.451Z,1.90
2023-04-16T21:11:03.670Z,1.52
2023-04-16T21:13:31.119Z,1.52
2023-04-16T21:15:58.421Z,1.73
2023-04-16T21:18:25.937Z,1.90
2023-04-16T21:20:53.163Z,1.75
2023-04-16T21:23:20.464Z,1.50
2023-04-16T21:25:48.076Z,1.67
2023-04-16T21:28:15.536Z,1.85
2023-04-16T21:30:43.022Z,2.08
2023-04-16T21:33:12.666Z,1.65
2023-04-16T21:35:39.959Z,2.13
2023-04-16T21:38:07.169Z,2.42
2023-04-16T21:40:34.386Z,1.83
2023-04-16T21:43:01.568Z,2.25
2023-04-16T21:45:30.676Z,2.30
2023-04-16T21:47:57.934Z,2.30
2023-04-16T21:50:25.208Z,2.70
2023-04-16T21:52:52.440Z,2.40
2023-04-16T21:55:19.747Z,2.72
2023-04-16T21:57:46.931Z,3.00
2023-04-16T22:00:14.881Z,2.67
2023-04-16T22:02:42.720Z,1.83
2023-04-16T22:05:11.283Z,1.90
2023-04-16T22:07:38.846Z,2.10
2023-04-16T22:10:08.570Z,1.50
2023-04-16T22:12:39.582Z,1.67
2023-04-16T22:15:08.061Z,2.10
2023-04-16T22:17:35.888Z,2.13
2023-04-16T22:20:13.244Z,2.42
2023-04-16T22:22:41.809Z,2.30
2023-04-16T22:25:10.051Z,2.63
2023-04-16T22:27:37.871Z,2.90
2023-04-16T22:30:08.327Z,3.58
2023-04-16T22:32:35.729Z,2.90
2023-04-16T22:35:03.263Z,3.20
2023-04-16T22:37:30.668Z,3.95
2023-04-16T22:39:58.000Z,3.65
2023-04-16T22:42:25.274Z,3.55
2023-04-16T22:44:52.562Z,3.55
2023-04-16T22:47:19.731Z,3.97
2023-04-16T22:49:47.663Z,4.15
2023-04-16T22:52:15.215Z,3.40
2023-04-16T22:54:42.531Z,3.90
2023-04-16T22:57:09.924Z,4.22
2023-04-16T22:59:37.170Z,4.03
2023-04-16T23:02:04.487Z,3.33
2023-04-16T23:04:32.864Z,3.63
2023-04-16T23:07:00.321Z,3.83
2023-04-16T23:09:27.523Z,3.60
2023-04-16T23:11:54.715Z,3.65
2023-04-16T23:14:21.987Z,3.72
2023-04-16T23:16:49.318Z,3.58
2023-04-16T23:19:16.588Z,3.58
2023-04-16T23:21:44.531Z,2.97
2023-04-16T23:24:11.877Z,3.10
2023-04-16T23:26:39.106Z,3.20
2023-04-16T23:29:06.403Z,3.10
2023-04-16T23:31:33.563Z,2.75
2023-04-16T23:34:00.768Z,2.70
2023-04-16T23:36:28.001Z,2.55
2023-04-16T23:38:55.308Z,2.60
2023-04-16T23:41:23.585Z,2.78
2023-04-16T23:43:50.791Z,2.50
2023-04-16T23:46:17.997Z,3.28
2023-04-16T23:48:45.275Z,3.40
2023-04-16T23:51:12.496Z,2.83
2023-04-16T23:53:40.764Z,3.08
2023-04-16T23:56:10.979Z,3.05
2023-04-16T23:58:38.214Z,3.10
